sensor_id;sensor_type;location;lat;lon;timestamp;temperature;humidity
15384;DHT22;7790;53.022;12.968;2023-12-14T00:01:59;21.60;42.90
15384;DHT22;7790;53.022;12.968;2023-12-14T00:06:00;21.60;42.90
15384;DHT22;7790;53.022;12.968;2023-12-14T00:10:01;21.70;42.90
15384;DHT22;7790;53.022;12.968;2023-12-14T00:14:01;21.60;42.80
15384;DHT22;7790;53.022;12.968;2023-12-14T00:18:02;21.70;42.80
15384;DHT22;7790;53.022;12.968;2023-12-14T00:22:03;21.70;42.80
15384;DHT22;7790;53.022;12.968;2023-12-14T00:26:04;21.70;42.80
15384;DHT22;7790;53.022;12.968;2023-12-14T00:30:05;21.70;42.70
15384;DHT22;7790;53.022;12.968;2023-12-14T00:34:06;21.70;42.90
15384;DHT22;7790;53.022;12.968;2023-12-14T00:38:07;21.70;42.80
15384;DHT22;7790;53.022;12.968;2023-12-14T00:42:08;21.70;42.70
15384;DHT22;7790;53.022;12.968;2023-12-14T00:46:09;21.70;42.80
15384;DHT22;7790;53.022;12.968;2023-12-14T00:50:11;21.60;42.90
15384;DHT22;7790;53.022;12.968;2023-12-14T00:54:12;21.60;42.90
15384;DHT22;7790;53.022;12.968;2023-12-14T00:58:13;21.50;42.90
15384;DHT22;7790;53.022;12.968;2023-12-14T01:02:14;21.40;43.00
15384;DHT22;7790;53.022;12.968;2023-12-14T01:06:15;21.40;43.00
15384;DHT22;7790;53.022;12.968;2023-12-14T01:10:16;21.40;43.00
15384;DHT22;7790;53.022;12.968;2023-12-14T01:14:16;21.50;42.90
15384;DHT22;7790;53.022;12.968;2023-12-14T01:18:17;21.60;43.00
15384;DHT22;7790;53.022;12.968;2023-12-14T01:22:18;21.60;43.00
15384;DHT22;7790;53.022;12.968;2023-12-14T01:26:19;21.60;42.90
15384;DHT22;7790;53.022;12.968;2023-12-14T01:30:20;21.60;42.90
15384;DHT22;7790;53.022;12.968;2023-12-14T01:34:21;21.60;43.00
15384;DHT22;7790;53.022;12.968;2023-12-14T01:38:21;21.60;43.00
15384;DHT22;7790;53.022;12.968;2023-12-14T01:42:22;21.60;43.00
15384;DHT22;7790;53.022;12.968;2023-12-14T01:46:23;21.70;42.90
15384;DHT22;7790;53.022;12.968;2023-12-14T01:50:24;21.70;42.90
15384;DHT22;7790;53.022;12.968;2023-12-14T01:54:25;21.70;43.00
15384;DHT22;7790;53.022;12.968;2023-12-14T01:58:25;21.70;43.00
15384;DHT22;7790;53.022;12.968;2023-12-14T02:02:27;21.70;43.10
15384;DHT22;7790;53.022;12.968;2023-12-14T02:06:28;21.70;43.10
15384;DHT22;7790;53.022;12.968;2023-12-14T02:10:29;21.70;43.60
15384;DHT22;7790;53.022;12.968;2023-12-14T02:14:30;21.60;43.70
15384;DHT22;7790;53.022;12.968;2023-12-14T02:18:30;21.50;43.20
15384;DHT22;7790;53.022;12.968;2023-12-14T02:26:51;21.40;43.20
15384;DHT22;7790;53.022;12.968;2023-12-14T02:30:52;21.50;43.20
15384;DHT22;7790;53.022;12.968;2023-12-14T02:34:53;21.50;43.10
15384;DHT22;7790;53.022;12.968;2023-12-14T02:38:53;21.50;43.10
15384;DHT22;7790;53.022;12.968;2023-12-14T02:42:54;21.60;43.20
15384;DHT22;7790;53.022;12.968;2023-12-14T02:46:55;21.60;43.20
15384;DHT22;7790;53.022;12.968;2023-12-14T02:50:56;21.60;43.30
15384;DHT22;7790;53.022;12.968;2023-12-14T02:54:57;21.60;43.30
15384;DHT22;7790;53.022;12.968;2023-12-14T02:58:58;21.60;43.30
15384;DHT22;7790;53.022;12.968;2023-12-14T03:02:58;21.60;43.30
15384;DHT22;7790;53.022;12.968;2023-12-14T03:06:59;21.70;43.30
15384;DHT22;7790;53.022;12.968;2023-12-14T03:11:03;21.70;43.30
15384;DHT22;7790;53.022;12.968;2023-12-14T03:15:04;21.70;43.40
15384;DHT22;7790;53.022;12.968;2023-12-14T03:19:05;21.70;43.30
15384;DHT22;7790;53.022;12.968;2023-12-14T03:23:06;21.70;43.20
15384;DHT22;7790;53.022;12.968;2023-12-14T03:27:06;21.80;43.20
15384;DHT22;7790;53.022;12.968;2023-12-14T03:31:10;21.80;43.30
15384;DHT22;7790;53.022;12.968;2023-12-14T03:35:11;21.70;43.70
15384;DHT22;7790;53.022;12.968;2023-12-14T03:39:11;21.70;43.10
15384;DHT22;7790;53.022;12.968;2023-12-14T03:43:12;21.70;43.30
15384;DHT22;7790;53.022;12.968;2023-12-14T03:47:14;21.60;43.30
15384;DHT22;7790;53.022;12.968;2023-12-14T03:51:19;21.50;43.30
15384;DHT22;7790;53.022;12.968;2023-12-14T03:55:20;21.40;43.40
15384;DHT22;7790;53.022;12.968;2023-12-14T03:59:21;21.40;43.40
15384;DHT22;7790;53.022;12.968;2023-12-14T04:03:22;21.50;43.20
15384;DHT22;7790;53.022;12.968;2023-12-14T04:07:23;21.60;43.20
15384;DHT22;7790;53.022;12.968;2023-12-14T04:11:23;21.70;43.10
15384;DHT22;7790;53.022;12.968;2023-12-14T04:15:24;21.80;43.10
15384;DHT22;7790;53.022;12.968;2023-12-14T04:19:25;21.70;43.10
15384;DHT22;7790;53.022;12.968;2023-12-14T04:23:26;21.70;43.30
15384;DHT22;7790;53.022;12.968;2023-12-14T04:27:27;21.80;43.30
15384;DHT22;7790;53.022;12.968;2023-12-14T04:31:30;21.90;43.20
15384;DHT22;7790;53.022;12.968;2023-12-14T04:35:31;21.80;43.20
15384;DHT22;7790;53.022;12.968;2023-12-14T04:39:36;21.90;43.20
15384;DHT22;7790;53.022;12.968;2023-12-14T04:43:37;21.90;43.20
15384;DHT22;7790;53.022;12.968;2023-12-14T04:47:38;21.80;43.10
15384;DHT22;7790;53.022;12.968;2023-12-14T04:51:39;21.90;43.00
15384;DHT22;7790;53.022;12.968;2023-12-14T04:55:40;21.80;43.00
15384;DHT22;7790;53.022;12.968;2023-12-14T04:59:41;21.80;43.00
15384;DHT22;7790;53.022;12.968;2023-12-14T05:03:42;21.70;43.20
15384;DHT22;7790;53.022;12.968;2023-12-14T05:07:43;21.60;43.10
15384;DHT22;7790;53.022;12.968;2023-12-14T05:11:44;21.50;43.00
15384;DHT22;7790;53.022;12.968;2023-12-14T05:15:45;21.50;43.20
15384;DHT22;7790;53.022;12.968;2023-12-14T05:19:46;21.60;43.40
15384;DHT22;7790;53.022;12.968;2023-12-14T05:23:47;21.70;43.20
15384;DHT22;7790;53.022;12.968;2023-12-14T05:27:47;21.80;43.10
15384;DHT22;7790;53.022;12.968;2023-12-14T05:31:48;22.00;42.70
15384;DHT22;7790;53.022;12.968;2023-12-14T05:35:49;21.90;42.40
15384;DHT22;7790;53.022;12.968;2023-12-14T05:39:50;22.00;42.40
15384;DHT22;7790;53.022;12.968;2023-12-14T05:43:51;22.00;42.30
15384;DHT22;7790;53.022;12.968;2023-12-14T05:47:51;22.10;42.30
15384;DHT22;7790;53.022;12.968;2023-12-14T05:51:52;22.10;42.20
15384;DHT22;7790;53.022;12.968;2023-12-14T05:55:53;22.10;42.10
15384;DHT22;7790;53.022;12.968;2023-12-14T05:59:54;22.10;42.10
15384;DHT22;7790;53.022;12.968;2023-12-14T06:03:55;22.10;42.10
15384;DHT22;7790;53.022;12.968;2023-12-14T06:07:55;22.00;42.10
15384;DHT22;7790;53.022;12.968;2023-12-14T06:11:56;21.90;42.20
15384;DHT22;7790;53.022;12.968;2023-12-14T06:15:57;21.80;42.20
15384;DHT22;7790;53.022;12.968;2023-12-14T06:19:58;21.70;42.60
15384;DHT22;7790;53.022;12.968;2023-12-14T06:23:59;21.70;42.60
15384;DHT22;7790;53.022;12.968;2023-12-14T06:28:00;21.70;42.50
15384;DHT22;7790;53.022;12.968;2023-12-14T06:32:01;21.70;42.40
15384;DHT22;7790;53.022;12.968;2023-12-14T06:36:07;21.80;42.30
15384;DHT22;7790;53.022;12.968;2023-12-14T06:40:09;21.80;42.10
15384;DHT22;7790;53.022;12.968;2023-12-14T06:44:10;21.90;42.10
15384;DHT22;7790;53.022;12.968;2023-12-14T06:48:11;22.00;42.10
15384;DHT22;7790;53.022;12.968;2023-12-14T06:52:12;22.00;42.00
15384;DHT22;7790;53.022;12.968;2023-12-14T06:56:13;22.00;41.90
15384;DHT22;7790;53.022;12.968;2023-12-14T07:00:14;22.00;41.80
15384;DHT22;7790;53.022;12.968;2023-12-14T07:04:15;22.00;41.80
15384;DHT22;7790;53.022;12.968;2023-12-14T07:08:16;22.10;41.80
15384;DHT22;7790;53.022;12.968;2023-12-14T07:12:16;22.10;41.80
15384;DHT22;7790;53.022;12.968;2023-12-14T07:16:18;22.10;41.90
15384;DHT22;7790;53.022;12.968;2023-12-14T07:20:19;22.10;41.80
15384;DHT22;7790;53.022;12.968;2023-12-14T07:24:20;22.10;41.90
15384;DHT22;7790;53.022;12.968;2023-12-14T07:28:21;22.10;41.70
15384;DHT22;7790;53.022;12.968;2023-12-14T07:32:22;22.00;41.80
15384;DHT22;7790;53.022;12.968;2023-12-14T07:36:23;21.90;41.80
15384;DHT22;7790;53.022;12.968;2023-12-14T07:40:24;21.80;42.00
15384;DHT22;7790;53.022;12.968;2023-12-14T07:44:24;21.70;42.30
15384;DHT22;7790;53.022;12.968;2023-12-14T07:48:26;21.70;42.30
15384;DHT22;7790;53.022;12.968;2023-12-14T07:52:29;21.70;42.20
15384;DHT22;7790;53.022;12.968;2023-12-14T07:56:30;21.80;42.30
15384;DHT22;7790;53.022;12.968;2023-12-14T08:00:31;21.80;42.30
15384;DHT22;7790;53.022;12.968;2023-12-14T08:04:31;21.90;42.20
15384;DHT22;7790;53.022;12.968;2023-12-14T08:08:34;21.90;42.40
15384;DHT22;7790;53.022;12.968;2023-12-14T08:12:34;21.90;42.20
15384;DHT22;7790;53.022;12.968;2023-12-14T08:16:35;22.00;42.30
15384;DHT22;7790;53.022;12.968;2023-12-14T08:20:36;22.00;42.30
15384;DHT22;7790;53.022;12.968;2023-12-14T08:24:38;22.00;42.20
15384;DHT22;7790;53.022;12.968;2023-12-14T08:28:39;22.00;42.30
15384;DHT22;7790;53.022;12.968;2023-12-14T08:32:41;22.10;42.20
15384;DHT22;7790;53.022;12.968;2023-12-14T08:36:41;21.90;40.40
15384;DHT22;7790;53.022;12.968;2023-12-14T08:40:42;21.20;38.80
15384;DHT22;7790;53.022;12.968;2023-12-14T08:44:43;20.80;38.30
15384;DHT22;7790;53.022;12.968;2023-12-14T08:48:44;20.40;38.40
15384;DHT22;7790;53.022;12.968;2023-12-14T08:52:45;20.10;37.80
15384;DHT22;7790;53.022;12.968;2023-12-14T08:56:46;20.00;38.00
15384;DHT22;7790;53.022;12.968;2023-12-14T09:00:47;19.80;38.00
15384;DHT22;7790;53.022;12.968;2023-12-14T09:04:53;19.60;37.90
15384;DHT22;7790;53.022;12.968;2023-12-14T09:08:54;19.40;37.90
15384;DHT22;7790;53.022;12.968;2023-12-14T09:12:54;19.20;37.70
15384;DHT22;7790;53.022;12.968;2023-12-14T09:16:55;19.00;37.80
15384;DHT22;7790;53.022;12.968;2023-12-14T09:20:56;18.90;38.70
15384;DHT22;7790;53.022;12.968;2023-12-14T09:24:57;18.90;38.20
15384;DHT22;7790;53.022;12.968;2023-12-14T09:28:58;19.00;38.10
15384;DHT22;7790;53.022;12.968;2023-12-14T09:32:59;18.90;38.00
15384;DHT22;7790;53.022;12.968;2023-12-14T09:36:59;18.70;38.40
15384;DHT22;7790;53.022;12.968;2023-12-14T09:41:00;19.30;39.00
15384;DHT22;7790;53.022;12.968;2023-12-14T09:45:01;19.90;38.70
15384;DHT22;7790;53.022;12.968;2023-12-14T09:49:02;20.30;38.50
15384;DHT22;7790;53.022;12.968;2023-12-14T09:53:04;20.60;38.70
15384;DHT22;7790;53.022;12.968;2023-12-14T09:57:05;20.70;38.80
15384;DHT22;7790;53.022;12.968;2023-12-14T10:05:23;21.00;39.10
15384;DHT22;7790;53.022;12.968;2023-12-14T10:09:24;21.10;39.00
15384;DHT22;7790;53.022;12.968;2023-12-14T10:13:38;21.20;39.20
15384;DHT22;7790;53.022;12.968;2023-12-14T10:17:39;21.30;39.40
15384;DHT22;7790;53.022;12.968;2023-12-14T10:21:40;21.40;39.30
15384;DHT22;7790;53.022;12.968;2023-12-14T10:25:42;21.40;39.70
15384;DHT22;7790;53.022;12.968;2023-12-14T10:29:43;21.50;40.00
15384;DHT22;7790;53.022;12.968;2023-12-14T10:33:47;21.50;39.50
15384;DHT22;7790;53.022;12.968;2023-12-14T10:37:52;21.50;39.40
15384;DHT22;7790;53.022;12.968;2023-12-14T10:41:57;21.50;39.60
15384;DHT22;7790;53.022;12.968;2023-12-14T10:45:59;21.40;39.60
15384;DHT22;7790;53.022;12.968;2023-12-14T10:50:02;21.40;39.80
15384;DHT22;7790;53.022;12.968;2023-12-14T10:54:03;21.40;39.80
15384;DHT22;7790;53.022;12.968;2023-12-14T10:58:05;21.30;39.80
15384;DHT22;7790;53.022;12.968;2023-12-14T11:02:09;21.20;39.70
15384;DHT22;7790;53.022;12.968;2023-12-14T11:06:29;21.20;39.70
15384;DHT22;7790;53.022;12.968;2023-12-14T11:14:39;21.00;40.00
15384;DHT22;7790;53.022;12.968;2023-12-14T11:18:41;20.90;40.00
15384;DHT22;7790;53.022;12.968;2023-12-14T11:22:43;21.00;40.00
15384;DHT22;7790;53.022;12.968;2023-12-14T11:26:45;21.00;40.00
15384;DHT22;7790;53.022;12.968;2023-12-14T11:30:47;21.10;39.90
15384;DHT22;7790;53.022;12.968;2023-12-14T11:34:47;21.10;39.80
15384;DHT22;7790;53.022;12.968;2023-12-14T11:38:48;21.20;40.40
15384;DHT22;7790;53.022;12.968;2023-12-14T11:43:00;21.20;39.90
15384;DHT22;7790;53.022;12.968;2023-12-14T11:47:01;21.20;39.90
15384;DHT22;7790;53.022;12.968;2023-12-14T11:51:02;21.20;39.70
15384;DHT22;7790;53.022;12.968;2023-12-14T11:55:03;21.20;39.70
15384;DHT22;7790;53.022;12.968;2023-12-14T11:59:04;21.30;39.90
15384;DHT22;7790;53.022;12.968;2023-12-14T12:03:12;21.20;39.80
15384;DHT22;7790;53.022;12.968;2023-12-14T12:07:13;21.20;39.90
15384;DHT22;7790;53.022;12.968;2023-12-14T12:11:24;21.20;39.90
15384;DHT22;7790;53.022;12.968;2023-12-14T12:15:29;21.10;39.90
15384;DHT22;7790;53.022;12.968;2023-12-14T12:19:33;21.00;39.90
15384;DHT22;7790;53.022;12.968;2023-12-14T12:23:35;21.00;40.00
15384;DHT22;7790;53.022;12.968;2023-12-14T12:27:36;21.00;40.00
15384;DHT22;7790;53.022;12.968;2023-12-14T12:31:37;20.90;40.50
15384;DHT22;7790;53.022;12.968;2023-12-14T12:35:38;20.90;40.00
15384;DHT22;7790;53.022;12.968;2023-12-14T12:39:39;20.80;40.00
15384;DHT22;7790;53.022;12.968;2023-12-14T12:43:39;20.80;40.10
15384;DHT22;7790;53.022;12.968;2023-12-14T12:47:40;20.80;40.10
15384;DHT22;7790;53.022;12.968;2023-12-14T12:51:41;20.90;40.00
15384;DHT22;7790;53.022;12.968;2023-12-14T12:55:42;21.00;40.00
15384;DHT22;7790;53.022;12.968;2023-12-14T12:59:42;21.10;39.80
15384;DHT22;7790;53.022;12.968;2023-12-14T13:03:43;21.20;39.90
15384;DHT22;7790;53.022;12.968;2023-12-14T13:07:45;21.20;40.00
15384;DHT22;7790;53.022;12.968;2023-12-14T13:11:47;21.20;40.00
15384;DHT22;7790;53.022;12.968;2023-12-14T13:15:48;21.30;40.00
15384;DHT22;7790;53.022;12.968;2023-12-14T13:19:48;21.30;40.40
15384;DHT22;7790;53.022;12.968;2023-12-14T13:23:49;21.30;39.90
15384;DHT22;7790;53.022;12.968;2023-12-14T13:27:51;21.30;40.10
15384;DHT22;7790;53.022;12.968;2023-12-14T13:31:52;21.30;39.90
15384;DHT22;7790;53.022;12.968;2023-12-14T13:35:53;21.20;40.00
15384;DHT22;7790;53.022;12.968;2023-12-14T13:39:54;21.10;39.90
15384;DHT22;7790;53.022;12.968;2023-12-14T13:43:54;21.00;39.90
15384;DHT22;7790;53.022;12.968;2023-12-14T13:47:55;21.00;40.00
15384;DHT22;7790;53.022;12.968;2023-12-14T13:51:56;20.80;39.20
15384;DHT22;7790;53.022;12.968;2023-12-14T13:55:57;20.70;39.70
15384;DHT22;7790;53.022;12.968;2023-12-14T13:59:58;20.70;40.00
15384;DHT22;7790;53.022;12.968;2023-12-14T14:03:59;20.60;40.20
15384;DHT22;7790;53.022;12.968;2023-12-14T14:07:59;20.50;40.30
15384;DHT22;7790;53.022;12.968;2023-12-14T14:12:00;20.50;40.50
15384;DHT22;7790;53.022;12.968;2023-12-14T14:16:01;20.50;40.50
15384;DHT22;7790;53.022;12.968;2023-12-14T14:20:03;20.60;40.40
15384;DHT22;7790;53.022;12.968;2023-12-14T14:24:04;20.70;40.60
15384;DHT22;7790;53.022;12.968;2023-12-14T14:28:05;20.60;40.70
15384;DHT22;7790;53.022;12.968;2023-12-14T14:32:07;20.70;40.80
15384;DHT22;7790;53.022;12.968;2023-12-14T14:36:08;20.70;40.90
15384;DHT22;7790;53.022;12.968;2023-12-14T14:40:09;20.70;41.00
15384;DHT22;7790;53.022;12.968;2023-12-14T14:44:10;20.80;41.10
15384;DHT22;7790;53.022;12.968;2023-12-14T14:48:11;20.80;41.20
15384;DHT22;7790;53.022;12.968;2023-12-14T14:52:12;20.80;41.20
15384;DHT22;7790;53.022;12.968;2023-12-14T14:56:12;20.70;41.30
15384;DHT22;7790;53.022;12.968;2023-12-14T15:00:13;20.70;41.30
15384;DHT22;7790;53.022;12.968;2023-12-14T15:04:16;20.70;41.50
15384;DHT22;7790;53.022;12.968;2023-12-14T15:08:18;20.70;41.30
15384;DHT22;7790;53.022;12.968;2023-12-14T15:12:19;20.70;41.20
15384;DHT22;7790;53.022;12.968;2023-12-14T15:16:20;20.60;41.20
15384;DHT22;7790;53.022;12.968;2023-12-14T15:20:25;20.60;41.40
15384;DHT22;7790;53.022;12.968;2023-12-14T15:24:25;20.50;41.40
15384;DHT22;7790;53.022;12.968;2023-12-14T15:28:26;20.50;41.40
15384;DHT22;7790;53.022;12.968;2023-12-14T15:32:27;20.50;41.60
15384;DHT22;7790;53.022;12.968;2023-12-14T15:36:28;20.40;41.40
15384;DHT22;7790;53.022;12.968;2023-12-14T15:40:30;20.50;41.40
15384;DHT22;7790;53.022;12.968;2023-12-14T15:44:31;20.50;41.60
15384;DHT22;7790;53.022;12.968;2023-12-14T15:48:32;20.60;41.80
15384;DHT22;7790;53.022;12.968;2023-12-14T15:52:33;20.60;41.90
15384;DHT22;7790;53.022;12.968;2023-12-14T15:56:33;20.70;41.50
15384;DHT22;7790;53.022;12.968;2023-12-14T16:00:34;20.70;41.60
15384;DHT22;7790;53.022;12.968;2023-12-14T16:04:35;20.80;41.60
15384;DHT22;7790;53.022;12.968;2023-12-14T16:08:36;21.00;41.40
15384;DHT22;7790;53.022;12.968;2023-12-14T16:12:37;21.20;41.30
15384;DHT22;7790;53.022;12.968;2023-12-14T16:16:39;21.20;41.50
15384;DHT22;7790;53.022;12.968;2023-12-14T16:20:40;21.20;41.50
15384;DHT22;7790;53.022;12.968;2023-12-14T16:24:41;21.10;41.50
15384;DHT22;7790;53.022;12.968;2023-12-14T16:28:42;21.00;41.50
15384;DHT22;7790;53.022;12.968;2023-12-14T16:32:42;21.00;41.70
15384;DHT22;7790;53.022;12.968;2023-12-14T16:36:47;21.00;41.70
15384;DHT22;7790;53.022;12.968;2023-12-14T16:40:48;20.90;41.80
15384;DHT22;7790;53.022;12.968;2023-12-14T16:44:49;20.80;41.80
15384;DHT22;7790;53.022;12.968;2023-12-14T16:48:50;20.70;41.70
15384;DHT22;7790;53.022;12.968;2023-12-14T16:52:51;20.70;41.70
15384;DHT22;7790;53.022;12.968;2023-12-14T16:56:51;20.70;41.60
15384;DHT22;7790;53.022;12.968;2023-12-14T17:00:52;20.70;41.60
15384;DHT22;7790;53.022;12.968;2023-12-14T17:04:57;20.60;41.60
15384;DHT22;7790;53.022;12.968;2023-12-14T17:08:59;20.60;41.70
15384;DHT22;7790;53.022;12.968;2023-12-14T17:13:00;20.50;41.60
15384;DHT22;7790;53.022;12.968;2023-12-14T17:17:00;20.50;41.70
15384;DHT22;7790;53.022;12.968;2023-12-14T17:21:01;20.50;41.80
15384;DHT22;7790;53.022;12.968;2023-12-14T17:25:03;20.50;41.80
15384;DHT22;7790;53.022;12.968;2023-12-14T17:29:04;20.50;41.80
15384;DHT22;7790;53.022;12.968;2023-12-14T17:33:09;20.50;41.90
15384;DHT22;7790;53.022;12.968;2023-12-14T17:37:12;20.50;42.10
15384;DHT22;7790;53.022;12.968;2023-12-14T17:41:13;20.50;41.90
15384;DHT22;7790;53.022;12.968;2023-12-14T17:45:15;20.60;42.00
15384;DHT22;7790;53.022;12.968;2023-12-14T17:49:16;20.80;42.00
15384;DHT22;7790;53.022;12.968;2023-12-14T17:53:17;20.90;41.90
15384;DHT22;7790;53.022;12.968;2023-12-14T17:57:18;21.10;41.80
15384;DHT22;7790;53.022;12.968;2023-12-14T18:01:19;21.20;41.70
15384;DHT22;7790;53.022;12.968;2023-12-14T18:05:19;21.20;41.80
15384;DHT22;7790;53.022;12.968;2023-12-14T18:09:20;21.30;41.80
15384;DHT22;7790;53.022;12.968;2023-12-14T18:13:21;21.40;41.80
15384;DHT22;7790;53.022;12.968;2023-12-14T18:17:22;21.40;41.80
15384;DHT22;7790;53.022;12.968;2023-12-14T18:21:23;21.40;41.80
15384;DHT22;7790;53.022;12.968;2023-12-14T18:25:24;21.40;41.80
15384;DHT22;7790;53.022;12.968;2023-12-14T18:29:26;21.50;41.90
15384;DHT22;7790;53.022;12.968;2023-12-14T18:33:26;21.40;41.80
15384;DHT22;7790;53.022;12.968;2023-12-14T18:37:27;21.40;41.90
15384;DHT22;7790;53.022;12.968;2023-12-14T18:41:28;21.40;41.80
15384;DHT22;7790;53.022;12.968;2023-12-14T18:45:29;21.40;41.80
15384;DHT22;7790;53.022;12.968;2023-12-14T18:49:30;21.30;41.90
15384;DHT22;7790;53.022;12.968;2023-12-14T18:53:31;21.30;41.90
15384;DHT22;7790;53.022;12.968;2023-12-14T18:57:32;21.20;41.90
15384;DHT22;7790;53.022;12.968;2023-12-14T19:01:33;21.20;41.90
15384;DHT22;7790;53.022;12.968;2023-12-14T19:05:35;21.10;41.80
15384;DHT22;7790;53.022;12.968;2023-12-14T19:09:36;21.10;41.90
15384;DHT22;7790;53.022;12.968;2023-12-14T19:13:37;21.10;41.80
15384;DHT22;7790;53.022;12.968;2023-12-14T19:17:38;21.20;41.10
15384;DHT22;7790;53.022;12.968;2023-12-14T19:21:40;21.20;41.40
15384;DHT22;7790;53.022;12.968;2023-12-14T19:25:41;21.20;41.50
15384;DHT22;7790;53.022;12.968;2023-12-14T19:29:42;21.20;41.50
15384;DHT22;7790;53.022;12.968;2023-12-14T19:33:43;21.20;41.50
15384;DHT22;7790;53.022;12.968;2023-12-14T19:37:44;21.20;41.50
15384;DHT22;7790;53.022;12.968;2023-12-14T19:41:48;21.30;41.40
15384;DHT22;7790;53.022;12.968;2023-12-14T19:45:51;21.30;42.20
15384;DHT22;7790;53.022;12.968;2023-12-14T19:49:52;21.30;42.10
15384;DHT22;7790;53.022;12.968;2023-12-14T19:53:53;21.40;41.70
15384;DHT22;7790;53.022;12.968;2023-12-14T19:57:54;21.50;40.90
15384;DHT22;7790;53.022;12.968;2023-12-14T20:01:55;21.60;40.60
15384;DHT22;7790;53.022;12.968;2023-12-14T20:05:55;21.60;40.60
15384;DHT22;7790;53.022;12.968;2023-12-14T20:09:56;21.60;40.90
15384;DHT22;7790;53.022;12.968;2023-12-14T20:13:57;21.60;40.50
15384;DHT22;7790;53.022;12.968;2023-12-14T20:17:58;21.50;40.50
15384;DHT22;7790;53.022;12.968;2023-12-14T20:21:59;21.50;40.60
15384;DHT22;7790;53.022;12.968;2023-12-14T20:26:00;21.40;40.70
15384;DHT22;7790;53.022;12.968;2023-12-14T20:30:00;21.30;40.70
15384;DHT22;7790;53.022;12.968;2023-12-14T20:34:04;21.30;40.80
15384;DHT22;7790;53.022;12.968;2023-12-14T20:38:05;21.20;40.80
15384;DHT22;7790;53.022;12.968;2023-12-14T20:42:07;21.30;40.80
15384;DHT22;7790;53.022;12.968;2023-12-14T20:46:08;21.30;40.70
15384;DHT22;7790;53.022;12.968;2023-12-14T20:50:09;21.30;41.20
15384;DHT22;7790;53.022;12.968;2023-12-14T20:54:10;21.30;42.20
15384;DHT22;7790;53.022;12.968;2023-12-14T20:58:11;21.30;42.90
15384;DHT22;7790;53.022;12.968;2023-12-14T21:02:13;21.30;42.90
15384;DHT22;7790;53.022;12.968;2023-12-14T21:06:14;21.30;42.60
15384;DHT22;7790;53.022;12.968;2023-12-14T21:10:15;21.20;42.90
15384;DHT22;7790;53.022;12.968;2023-12-14T21:14:16;21.10;42.50
15384;DHT22;7790;53.022;12.968;2023-12-14T21:18:17;21.10;42.50
15384;DHT22;7790;53.022;12.968;2023-12-14T21:22:18;21.10;42.30
15384;DHT22;7790;53.022;12.968;2023-12-14T21:26:19;21.10;42.00
15384;DHT22;7790;53.022;12.968;2023-12-14T21:30:21;21.00;41.80
15384;DHT22;7790;53.022;12.968;2023-12-14T21:34:22;21.10;42.60
15384;DHT22;7790;53.022;12.968;2023-12-14T21:38:23;21.00;42.40
15384;DHT22;7790;53.022;12.968;2023-12-14T21:42:24;21.00;42.60
15384;DHT22;7790;53.022;12.968;2023-12-14T21:46:25;21.10;43.40
15384;DHT22;7790;53.022;12.968;2023-12-14T21:50:26;21.10;43.50
15384;DHT22;7790;53.022;12.968;2023-12-14T21:54:26;21.10;42.70
15384;DHT22;7790;53.022;12.968;2023-12-14T21:58:27;21.20;43.40
15384;DHT22;7790;53.022;12.968;2023-12-14T22:02:28;21.10;43.30
15384;DHT22;7790;53.022;12.968;2023-12-14T22:06:29;21.20;42.90
15384;DHT22;7790;53.022;12.968;2023-12-14T22:10:30;21.20;42.60
15384;DHT22;7790;53.022;12.968;2023-12-14T22:14:31;21.30;43.10
15384;DHT22;7790;53.022;12.968;2023-12-14T22:18:32;21.20;43.70
15384;DHT22;7790;53.022;12.968;2023-12-14T22:22:33;21.20;43.10
15384;DHT22;7790;53.022;12.968;2023-12-14T22:26:33;21.10;43.30
15384;DHT22;7790;53.022;12.968;2023-12-14T22:30:34;21.00;43.20
15384;DHT22;7790;53.022;12.968;2023-12-14T22:34:35;21.00;42.80
15384;DHT22;7790;53.022;12.968;2023-12-14T22:38:36;21.00;42.50
15384;DHT22;7790;53.022;12.968;2023-12-14T22:42:37;21.00;42.60
15384;DHT22;7790;53.022;12.968;2023-12-14T22:46:39;21.00;42.80
15384;DHT22;7790;53.022;12.968;2023-12-14T22:50:40;21.00;43.00
15384;DHT22;7790;53.022;12.968;2023-12-14T22:54:41;21.10;43.10
15384;DHT22;7790;53.022;12.968;2023-12-14T22:58:42;21.00;43.30
15384;DHT22;7790;53.022;12.968;2023-12-14T23:02:43;21.00;43.40
15384;DHT22;7790;53.022;12.968;2023-12-14T23:06:43;21.10;43.40
15384;DHT22;7790;53.022;12.968;2023-12-14T23:10:44;21.10;43.60
15384;DHT22;7790;53.022;12.968;2023-12-14T23:14:45;21.10;44.30
15384;DHT22;7790;53.022;12.968;2023-12-14T23:18:47;21.10;44.20
15384;DHT22;7790;53.022;12.968;2023-12-14T23:22:48;21.20;44.20
15384;DHT22;7790;53.022;12.968;2023-12-14T23:26:48;21.10;44.10
15384;DHT22;7790;53.022;12.968;2023-12-14T23:30:50;21.20;43.80
15384;DHT22;7790;53.022;12.968;2023-12-14T23:34:51;21.20;43.80
15384;DHT22;7790;53.022;12.968;2023-12-14T23:38:51;21.20;43.80
15384;DHT22;7790;53.022;12.968;2023-12-14T23:42:52;21.20;43.20
15384;DHT22;7790;53.022;12.968;2023-12-14T23:46:53;21.10;43.60
15384;DHT22;7790;53.022;12.968;2023-12-14T23:50:54;21.10;43.00
15384;DHT22;7790;53.022;12.968;2023-12-14T23:54:55;21.10;42.50
15384;DHT22;7790;53.022;12.968;2023-12-14T23:58:56;21.00;43.20
